sensor_id;sensor_type;location;lat;lon;timestamp;pressure;altitude;pressure_sealevel;temperature;humidity
38912;BME280;28444;48.056;14.408;2023-02-14T00:00:47;99573.09;;;-0.92;100.00
38912;BME280;28444;48.056;14.408;2023-02-14T00:03:14;99571.91;;;-0.91;100.00
38912;BME280;28444;48.056;14.408;2023-02-14T00:05:41;99568.22;;;-0.85;100.00
38912;BME280;28444;48.056;14.408;2023-02-14T00:08:08;99559.53;;;-0.89;100.00
38912;BME280;28444;48.056;14.408;2023-02-14T00:10:34;99567.81;;;-0.83;100.00
38912;BME280;28444;48.056;14.408;2023-02-14T00:13:01;99566.13;;;-0.90;100.00
38912;BME280;28444;48.056;14.408;2023-02-14T00:15:28;99574.28;;;-0.93;100.00
38912;BME280;28444;48.056;14.408;2023-02-14T00:17:56;99572.03;;;-0.95;100.00
38912;BME280;28444;48.056;14.408;2023-02-14T00:20:26;99569.34;;;-0.95;100.00
38912;BME280;28444;48.056;14.408;2023-02-14T00:22:53;99572.25;;;-1.02;100.00
38912;BME280;28444;48.056;14.408;2023-02-14T00:25:20;99571.97;;;-1.04;100.00
38912;BME280;28444;48.056;14.408;2023-02-14T00:27:47;99578.78;;;-1.25;100.00
38912;BME280;28444;48.056;14.408;2023-02-14T00:30:14;99580.38;;;-1.28;100.00
38912;BME280;28444;48.056;14.408;2023-02-14T00:32:41;99595.63;;;-1.25;100.00
38912;BME280;28444;48.056;14.408;2023-02-14T00:35:08;99598.41;;;-1.15;100.00
38912;BME280;28444;48.056;14.408;2023-02-14T00:37:35;99603.97;;;-1.10;100.00
38912;BME280;28444;48.056;14.408;2023-02-14T00:40:02;99601.28;;;-1.10;100.00
38912;BME280;28444;48.056;14.408;2023-02-14T00:42:30;99603.34;;;-1.14;100.00
38912;BME280;28444;48.056;14.408;2023-02-14T00:44:57;99613.22;;;-1.11;100.00
38912;BME280;28444;48.056;14.408;2023-02-14T00:47:23;99614.94;;;-1.17;100.00
38912;BME280;28444;48.056;14.408;2023-02-14T00:49:50;99616.34;;;-1.12;100.00
38912;BME280;28444;48.056;14.408;2023-02-14T00:52:17;99618.38;;;-1.16;100.00
38912;BME280;28444;48.056;14.408;2023-02-14T00:54:43;99609.38;;;-1.23;100.00
38912;BME280;28444;48.056;14.408;2023-02-14T00:57:10;99605.94;;;-1.23;100.00
38912;BME280;28444;48.056;14.408;2023-02-14T00:59:37;99605.84;;;-1.19;100.00
38912;BME280;28444;48.056;14.408;2023-02-14T01:02:03;99596.72;;;-1.35;100.00
38912;BME280;28444;48.056;14.408;2023-02-14T01:04:30;99603.19;;;-1.45;100.00
38912;BME280;28444;48.056;14.408;2023-02-14T01:06:57;99606.09;;;-1.52;100.00
38912;BME280;28444;48.056;14.408;2023-02-14T01:09:24;99598.56;;;-1.57;100.00
38912;BME280;28444;48.056;14.408;2023-02-14T01:11:50;99588.34;;;-1.50;100.00
38912;BME280;28444;48.056;14.408;2023-02-14T01:14:17;99586.34;;;-1.58;100.00
38912;BME280;28444;48.056;14.408;2023-02-14T01:16:44;99582.25;;;-1.50;100.00
38912;BME280;28444;48.056;14.408;2023-02-14T01:19:10;99576.25;;;-1.41;100.00
38912;BME280;28444;48.056;14.408;2023-02-14T01:21:37;99583.81;;;-1.27;100.00
38912;BME280;28444;48.056;14.408;2023-02-14T01:24:06;99572.31;;;-1.28;100.00
38912;BME280;28444;48.056;14.408;2023-02-14T01:26:33;99576.94;;;-1.28;100.00
38912;BME280;28444;48.056;14.408;2023-02-14T01:29:00;99573.22;;;-1.31;100.00
38912;BME280;28444;48.056;14.408;2023-02-14T01:31:30;99573.75;;;-1.36;100.00
38912;BME280;28444;48.056;14.408;2023-02-14T01:33:58;99576.53;;;-1.39;100.00
38912;BME280;28444;48.056;14.408;2023-02-14T01:36:33;99573.84;;;-1.39;100.00
38912;BME280;28444;48.056;14.408;2023-02-14T01:39:04;99576.75;;;-1.34;100.00
38912;BME280;28444;48.056;14.408;2023-02-14T01:41:33;99576.66;;;-1.30;100.00
38912;BME280;28444;48.056;14.408;2023-02-14T01:44:04;99575.22;;;-1.22;100.00
38912;BME280;28444;48.056;14.408;2023-02-14T01:46:36;99577.78;;;-1.18;100.00
38912;BME280;28444;48.056;14.408;2023-02-14T01:49:24;99565.34;;;-1.25;100.00
38912;BME280;28444;48.056;14.408;2023-02-14T01:52:17;99566.59;;;-1.17;100.00
38912;BME280;28444;48.056;14.408;2023-02-14T01:54:50;99562.94;;;-1.10;100.00
38912;BME280;28444;48.056;14.408;2023-02-14T01:57:19;99558.66;;;-1.08;100.00
38912;BME280;28444;48.056;14.408;2023-02-14T01:59:50;99564.13;;;-1.11;100.00
38912;BME280;28444;48.056;14.408;2023-02-14T02:02:18;99560.25;;;-1.10;100.00
38912;BME280;28444;48.056;14.408;2023-02-14T02:04:52;99556.38;;;-1.09;100.00
38912;BME280;28444;48.056;14.408;2023-02-14T02:07:23;99558.75;;;-1.11;100.00
38912;BME280;28444;48.056;14.408;2023-02-14T02:09:57;99557.03;;;-1.05;100.00
38912;BME280;28444;48.056;14.408;2023-02-14T02:12:25;99554.66;;;-1.03;100.00
38912;BME280;28444;48.056;14.408;2023-02-14T02:14:57;99552.66;;;-1.12;100.00
38912;BME280;28444;48.056;14.408;2023-02-14T02:18:10;99543.06;;;-1.13;100.00
38912;BME280;28444;48.056;14.408;2023-02-14T02:21:12;99549.78;;;-0.95;100.00
38912;BME280;28444;48.056;14.408;2023-02-14T02:27:06;99551.34;;;-1.07;100.00
38912;BME280;28444;48.056;14.408;2023-02-14T02:37:01;99545.09;;;-1.04;100.00
38912;BME280;28444;48.056;14.408;2023-02-14T02:39:57;99541.94;;;-0.90;100.00
38912;BME280;28444;48.056;14.408;2023-02-14T02:43:07;99532.63;;;-0.98;100.00
38912;BME280;28444;48.056;14.408;2023-02-14T02:49:13;99538.25;;;-1.05;100.00
38912;BME280;28444;48.056;14.408;2023-02-14T02:52:01;99549.41;;;-1.07;100.00
38912;BME280;28444;48.056;14.408;2023-02-14T02:54:53;99544.72;;;-1.15;100.00
38912;BME280;28444;48.056;14.408;2023-02-14T02:57:25;99553.81;;;-1.13;100.00
38912;BME280;28444;48.056;14.408;2023-02-14T02:59:54;99551.38;;;-1.20;100.00
38912;BME280;28444;48.056;14.408;2023-02-14T03:02:43;99550.72;;;-1.24;100.00
38912;BME280;28444;48.056;14.408;2023-02-14T03:05:44;99553.94;;;-1.16;100.00
38912;BME280;28444;48.056;14.408;2023-02-14T03:08:24;99547.75;;;-1.26;100.00
38912;BME280;28444;48.056;14.408;2023-02-14T03:10:51;99554.59;;;-1.25;100.00
38912;BME280;28444;48.056;14.408;2023-02-14T03:13:42;99559.88;;;-1.22;100.00
38912;BME280;28444;48.056;14.408;2023-02-14T03:16:58;99556.38;;;-1.09;100.00
38912;BME280;28444;48.056;14.408;2023-02-14T03:19:38;99552.53;;;-1.08;100.00
38912;BME280;28444;48.056;14.408;2023-02-14T03:22:42;99551.47;;;-1.11;100.00
38912;BME280;28444;48.056;14.408;2023-02-14T03:25:24;99545.88;;;-1.16;100.00
38912;BME280;28444;48.056;14.408;2023-02-14T03:28:03;99549.09;;;-1.09;100.00
38912;BME280;28444;48.056;14.408;2023-02-14T03:31:01;99548.31;;;-1.09;100.00
38912;BME280;28444;48.056;14.408;2023-02-14T03:33:57;99553.91;;;-1.04;100.00
38912;BME280;28444;48.056;14.408;2023-02-14T03:36:38;99543.78;;;-1.00;100.00
38912;BME280;28444;48.056;14.408;2023-02-14T03:39:16;99539.41;;;-0.84;100.00
38912;BME280;28444;48.056;14.408;2023-02-14T03:42:13;99540.03;;;-0.80;100.00
38912;BME280;28444;48.056;14.408;2023-02-14T03:44:38;99541.44;;;-0.76;100.00
38912;BME280;28444;48.056;14.408;2023-02-14T03:47:11;99545.50;;;-0.71;100.00
38912;BME280;28444;48.056;14.408;2023-02-14T03:49:46;99540.56;;;-0.73;100.00
38912;BME280;28444;48.056;14.408;2023-02-14T03:52:14;99541.69;;;-0.61;100.00
38912;BME280;28444;48.056;14.408;2023-02-14T03:54:45;99543.31;;;-0.63;100.00
38912;BME280;28444;48.056;14.408;2023-02-14T03:57:22;99550.44;;;-0.69;100.00
38912;BME280;28444;48.056;14.408;2023-02-14T03:59:50;99549.19;;;-0.78;100.00
38912;BME280;28444;48.056;14.408;2023-02-14T04:02:38;99542.94;;;-0.75;100.00
38912;BME280;28444;48.056;14.408;2023-02-14T04:05:12;99541.56;;;-0.79;100.00
38912;BME280;28444;48.056;14.408;2023-02-14T04:07:49;99541.44;;;-0.76;100.00
38912;BME280;28444;48.056;14.408;2023-02-14T04:10:17;99531.25;;;-0.81;100.00
38912;BME280;28444;48.056;14.408;2023-02-14T04:12:45;99528.06;;;-0.88;100.00
38912;BME280;28444;48.056;14.408;2023-02-14T04:15:13;99529.53;;;-0.87;100.00
38912;BME280;28444;48.056;14.408;2023-02-14T04:17:40;99530.44;;;-0.90;100.00
38912;BME280;28444;48.056;14.408;2023-02-14T04:20:26;99521.06;;;-0.86;100.00
38912;BME280;28444;48.056;14.408;2023-02-14T04:22:53;99532.69;;;-0.89;100.00
38912;BME280;28444;48.056;14.408;2023-02-14T04:25:20;99529.66;;;-0.91;100.00
38912;BME280;28444;48.056;14.408;2023-02-14T04:27:47;99522.78;;;-1.14;100.00
38912;BME280;28444;48.056;14.408;2023-02-14T04:30:15;99525.84;;;-1.03;100.00
38912;BME280;28444;48.056;14.408;2023-02-14T04:32:43;99523.63;;;-1.04;100.00
38912;BME280;28444;48.056;14.408;2023-02-14T04:35:10;99524.94;;;-1.09;100.00
38912;BME280;28444;48.056;14.408;2023-02-14T04:37:37;99527.63;;;-1.09;100.00
38912;BME280;28444;48.056;14.408;2023-02-14T04:40:05;99524.34;;;-1.04;100.00
38912;BME280;28444;48.056;14.408;2023-02-14T04:42:32;99526.47;;;-0.99;100.00
38912;BME280;28444;48.056;14.408;2023-02-14T04:44:58;99522.50;;;-0.94;100.00
38912;BME280;28444;48.056;14.408;2023-02-14T04:47:28;99527.03;;;-1.04;100.00
38912;BME280;28444;48.056;14.408;2023-02-14T04:49:55;99520.81;;;-1.01;100.00
38912;BME280;28444;48.056;14.408;2023-02-14T04:52:21;99514.38;;;-1.03;100.00
38912;BME280;28444;48.056;14.408;2023-02-14T04:54:48;99515.84;;;-1.02;100.00
38912;BME280;28444;48.056;14.408;2023-02-14T04:57:15;99519.19;;;-0.98;100.00
38912;BME280;28444;48.056;14.408;2023-02-14T04:59:41;99521.88;;;-0.98;100.00
38912;BME280;28444;48.056;14.408;2023-02-14T05:02:08;99515.84;;;-1.02;100.00
38912;BME280;28444;48.056;14.408;2023-02-14T05:04:35;99512.50;;;-0.93;100.00
38912;BME280;28444;48.056;14.408;2023-02-14T05:07:02;99523.75;;;-0.86;100.00
38912;BME280;28444;48.056;14.408;2023-02-14T05:09:28;99519.31;;;-0.80;100.00
38912;BME280;28444;48.056;14.408;2023-02-14T05:11:55;99521.81;;;-0.85;100.00
38912;BME280;28444;48.056;14.408;2023-02-14T05:14:22;99516.19;;;-0.78;100.00
38912;BME280;28444;48.056;14.408;2023-02-14T05:16:48;99518.31;;;-0.73;100.00
38912;BME280;28444;48.056;14.408;2023-02-14T05:19:15;99516.44;;;-0.63;100.00
38912;BME280;28444;48.056;14.408;2023-02-14T05:21:42;99514.50;;;-0.63;100.00
38912;BME280;28444;48.056;14.408;2023-02-14T05:24:08;99521.81;;;-0.63;100.00
38912;BME280;28444;48.056;14.408;2023-02-14T05:26:35;99523.25;;;-0.71;100.00
38912;BME280;28444;48.056;14.408;2023-02-14T05:29:02;99519.44;;;-0.83;100.00
38912;BME280;28444;48.056;14.408;2023-02-14T05:31:28;99524.63;;;-0.89;100.00
38912;BME280;28444;48.056;14.408;2023-02-14T05:33:55;99526.44;;;-0.86;100.00
38912;BME280;28444;48.056;14.408;2023-02-14T05:36:22;99519.25;;;-0.89;100.00
38912;BME280;28444;48.056;14.408;2023-02-14T05:38:49;99521.09;;;-0.99;100.00
38912;BME280;28444;48.056;14.408;2023-02-14T05:41:15;99523.16;;;-1.03;100.00
38912;BME280;28444;48.056;14.408;2023-02-14T05:43:42;99527.44;;;-0.92;100.00
38912;BME280;28444;48.056;14.408;2023-02-14T05:46:09;99526.72;;;-0.84;100.00
38912;BME280;28444;48.056;14.408;2023-02-14T05:48:35;99527.94;;;-0.85;100.00
38912;BME280;28444;48.056;14.408;2023-02-14T05:51:07;99527.44;;;-0.70;100.00
38912;BME280;28444;48.056;14.408;2023-02-14T05:53:34;99526.88;;;-0.65;100.00
38912;BME280;28444;48.056;14.408;2023-02-14T05:56:02;99522.94;;;-0.74;100.00
38912;BME280;28444;48.056;14.408;2023-02-14T05:58:29;99518.31;;;-0.73;100.00
38912;BME280;28444;48.056;14.408;2023-02-14T06:00:56;99520.81;;;-0.79;100.00
38912;BME280;28444;48.056;14.408;2023-02-14T06:03:24;99519.06;;;-0.73;100.00
38912;BME280;28444;48.056;14.408;2023-02-14T06:05:51;99514.94;;;-0.64;100.00
38912;BME280;28444;48.056;14.408;2023-02-14T06:08:18;99523.31;;;-0.62;100.00
38912;BME280;28444;48.056;14.408;2023-02-14T06:10:45;99522.88;;;-0.61;100.00
38912;BME280;28444;48.056;14.408;2023-02-14T06:13:11;99520.47;;;-0.59;100.00
38912;BME280;28444;48.056;14.408;2023-02-14T06:15:38;99523.31;;;-0.62;100.00
38912;BME280;28444;48.056;14.408;2023-02-14T06:18:05;99522.25;;;-0.65;100.00
38912;BME280;28444;48.056;14.408;2023-02-14T06:20:31;99527.81;;;-0.59;100.00
38912;BME280;28444;48.056;14.408;2023-02-14T06:22:58;99535.63;;;-0.52;100.00
38912;BME280;28444;48.056;14.408;2023-02-14T06:25:25;99536.69;;;-0.50;100.00
38912;BME280;28444;48.056;14.408;2023-02-14T06:27:56;99528.91;;;-0.47;100.00
38912;BME280;28444;48.056;14.408;2023-02-14T06:30:24;99531.31;;;-0.50;100.00
38912;BME280;28444;48.056;14.408;2023-02-14T06:32:51;99545.00;;;-0.57;100.00
38912;BME280;28444;48.056;14.408;2023-02-14T06:35:18;99537.06;;;-0.60;100.00
38912;BME280;28444;48.056;14.408;2023-02-14T06:37:45;99539.38;;;-0.50;100.00
38912;BME280;28444;48.056;14.408;2023-02-14T06:40:12;99543.38;;;-0.54;100.00
38912;BME280;28444;48.056;14.408;2023-02-14T06:42:39;99540.44;;;-0.47;100.00
38912;BME280;28444;48.056;14.408;2023-02-14T06:45:06;99543.25;;;-0.51;100.00
38912;BME280;28444;48.056;14.408;2023-02-14T06:47:33;99538.91;;;-0.48;100.00
38912;BME280;28444;48.056;14.408;2023-02-14T06:50:01;99534.16;;;-0.44;100.00
38912;BME280;28444;48.056;14.408;2023-02-14T06:52:31;99535.41;;;-0.36;100.00
38912;BME280;28444;48.056;14.408;2023-02-14T06:54:58;99537.50;;;-0.40;100.00
38912;BME280;28444;48.056;14.408;2023-02-14T06:57:24;99533.22;;;-0.28;100.00
38912;BME280;28444;48.056;14.408;2023-02-14T06:59:51;99531.88;;;-0.23;100.00
38912;BME280;28444;48.056;14.408;2023-02-14T07:02:18;99530.56;;;-0.19;100.00
38912;BME280;28444;48.056;14.408;2023-02-14T07:04:44;99526.38;;;-0.20;100.00
38912;BME280;28444;48.056;14.408;2023-02-14T07:07:11;99534.31;;;-0.16;100.00
38912;BME280;28444;48.056;14.408;2023-02-14T07:09:38;99530.13;;;-0.17;100.00
38912;BME280;28444;48.056;14.408;2023-02-14T07:12:05;99525.38;;;-0.13;100.00
38912;BME280;28444;48.056;14.408;2023-02-14T07:14:31;99522.34;;;-0.15;100.00
38912;BME280;28444;48.056;14.408;2023-02-14T07:16:58;99525.94;;;-0.18;100.00
38912;BME280;28444;48.056;14.408;2023-02-14T07:19:25;99525.22;;;-0.41;100.00
38912;BME280;28444;48.056;14.408;2023-02-14T07:21:51;99516.75;;;-0.30;100.00
38912;BME280;28444;48.056;14.408;2023-02-14T07:24:18;99512.53;;;-0.40;100.00
38912;BME280;28444;48.056;14.408;2023-02-14T07:26:45;99514.22;;;-0.34;100.00
38912;BME280;28444;48.056;14.408;2023-02-14T07:29:11;99514.69;;;-0.26;100.00
38912;BME280;28444;48.056;14.408;2023-02-14T07:31:38;99511.56;;;-0.25;100.00
38912;BME280;28444;48.056;14.408;2023-02-14T07:34:05;99507.22;;;-0.22;100.00
38912;BME280;28444;48.056;14.408;2023-02-14T07:36:32;99513.38;;;-0.21;100.00
38912;BME280;28444;48.056;14.408;2023-02-14T07:38:59;99515.81;;;-0.14;100.00
38912;BME280;28444;48.056;14.408;2023-02-14T07:41:26;99515.94;;;-0.18;100.00
38912;BME280;28444;48.056;14.408;2023-02-14T07:43:52;99518.03;;;-0.13;100.00
38912;BME280;28444;48.056;14.408;2023-02-14T07:46:19;99508.81;;;-0.34;100.00
38912;BME280;28444;48.056;14.408;2023-02-14T07:48:46;99512.00;;;-0.26;100.00
38912;BME280;28444;48.056;14.408;2023-02-14T07:51:14;99513.88;;;-0.14;100.00
38912;BME280;28444;48.056;14.408;2023-02-14T07:53:40;99509.84;;;-0.09;100.00
38912;BME280;28444;48.056;14.408;2023-02-14T07:56:07;99509.84;;;-0.09;100.00
38912;BME280;28444;48.056;14.408;2023-02-14T07:58:34;99518.09;;;-0.04;100.00
38912;BME280;28444;48.056;14.408;2023-02-14T08:01:00;99512.28;;;0.07;100.00
38912;BME280;28444;48.056;14.408;2023-02-14T08:03:28;99515.88;;;0.04;100.00
38912;BME280;28444;48.056;14.408;2023-02-14T08:05:54;99515.44;;;0.06;100.00
38912;BME280;28444;48.056;14.408;2023-02-14T08:08:29;99510.94;;;0.03;100.00
38912;BME280;28444;48.056;14.408;2023-02-14T08:10:56;99518.72;;;0.01;100.00
38912;BME280;28444;48.056;14.408;2023-02-14T08:13:24;99512.78;;;0.15;100.00
38912;BME280;28444;48.056;14.408;2023-02-14T08:15:51;99516.50;;;0.17;100.00
38912;BME280;28444;48.056;14.408;2023-02-14T08:18:32;99521.59;;;0.24;100.00
38912;BME280;28444;48.056;14.408;2023-02-14T08:20:59;99513.25;;;0.22;100.00
38912;BME280;28444;48.056;14.408;2023-02-14T08:23:27;99518.06;;;0.37;100.00
38912;BME280;28444;48.056;14.408;2023-02-14T08:25:54;99509.66;;;0.26;100.00
38912;BME280;28444;48.056;14.408;2023-02-14T08:28:20;99519.06;;;0.21;100.00
38912;BME280;28444;48.056;14.408;2023-02-14T08:30:48;99507.59;;;0.39;100.00
38912;BME280;28444;48.056;14.408;2023-02-14T08:33:15;99504.16;;;0.38;100.00
38912;BME280;28444;48.056;14.408;2023-02-14T08:35:42;99511.19;;;0.45;100.00
38912;BME280;28444;48.056;14.408;2023-02-14T08:38:08;99510.31;;;0.57;99.49
38912;BME280;28444;48.056;14.408;2023-02-14T08:40:35;99513.00;;;0.48;98.79
38912;BME280;28444;48.056;14.408;2023-02-14T08:43:06;99517.28;;;0.36;99.59
38912;BME280;28444;48.056;14.408;2023-02-14T08:45:33;99515.94;;;0.32;100.00
38912;BME280;28444;48.056;14.408;2023-02-14T08:48:02;99514.59;;;0.36;100.00
38912;BME280;28444;48.056;14.408;2023-02-14T08:50:28;99517.59;;;0.38;100.00
38912;BME280;28444;48.056;14.408;2023-02-14T08:52:55;99512.69;;;0.37;100.00
38912;BME280;28444;48.056;14.408;2023-02-14T08:55:22;99514.00;;;0.32;100.00
38912;BME280;28444;48.056;14.408;2023-02-14T08:57:49;99511.72;;;0.21;99.93
38912;BME280;28444;48.056;14.408;2023-02-14T09:00:16;99511.38;;;0.01;100.00
38912;BME280;28444;48.056;14.408;2023-02-14T09:02:43;99509.16;;;0.09;100.00
38912;BME280;28444;48.056;14.408;2023-02-14T09:05:09;99508.13;;;0.15;100.00
38912;BME280;28444;48.056;14.408;2023-02-14T09:07:36;99514.13;;;0.29;100.00
38912;BME280;28444;48.056;14.408;2023-02-14T09:10:03;99504.59;;;0.37;100.00
38912;BME280;28444;48.056;14.408;2023-02-14T09:12:30;99510.13;;;0.42;100.00
38912;BME280;28444;48.056;14.408;2023-02-14T09:14:57;99509.72;;;0.44;100.00
38912;BME280;28444;48.056;14.408;2023-02-14T09:17:24;99515.66;;;0.39;100.00
38912;BME280;28444;48.056;14.408;2023-02-14T09:19:50;99516.88;;;0.47;100.00
38912;BME280;28444;48.056;14.408;2023-02-14T09:22:18;99517.94;;;0.40;100.00
38912;BME280;28444;48.056;14.408;2023-02-14T09:24:45;99519.09;;;0.39;100.00
38912;BME280;28444;48.056;14.408;2023-02-14T09:27:12;99517.31;;;0.45;100.00
38912;BME280;28444;48.056;14.408;2023-02-14T09:29:39;99522.13;;;0.51;100.00
38912;BME280;28444;48.056;14.408;2023-02-14T09:32:06;99520.19;;;0.60;100.00
38912;BME280;28444;48.056;14.408;2023-02-14T09:34:33;99520.63;;;0.50;100.00
38912;BME280;28444;48.056;14.408;2023-02-14T09:37:18;99527.78;;;0.43;100.00
38912;BME280;28444;48.056;14.408;2023-02-14T09:40:04;99523.19;;;0.53;100.00
38912;BME280;28444;48.056;14.408;2023-02-14T09:42:47;99521.09;;;0.57;100.00
38912;BME280;28444;48.056;14.408;2023-02-14T09:45:21;99521.72;;;0.70;100.00
38912;BME280;28444;48.056;14.408;2023-02-14T09:48:08;99513.16;;;0.72;100.00
38912;BME280;28444;48.056;14.408;2023-02-14T09:50:59;99521.84;;;0.76;100.00
38912;BME280;28444;48.056;14.408;2023-02-14T09:53:35;99510.19;;;0.88;100.00
38912;BME280;28444;48.056;14.408;2023-02-14T09:56:15;99509.88;;;0.68;100.00
38912;BME280;28444;48.056;14.408;2023-02-14T09:59:13;99513.91;;;0.72;100.00
38912;BME280;28444;48.056;14.408;2023-02-14T10:01:48;99522.44;;;0.53;100.00
38912;BME280;28444;48.056;14.408;2023-02-14T10:04:40;99522.44;;;0.53;100.00
38912;BME280;28444;48.056;14.408;2023-02-14T10:07:39;99516.00;;;0.59;100.00
38912;BME280;28444;48.056;14.408;2023-02-14T10:10:17;99520.22;;;0.79;100.00
38912;BME280;28444;48.056;14.408;2023-02-14T10:12:50;99512.56;;;0.86;100.00
38912;BME280;28444;48.056;14.408;2023-02-14T10:15:22;99509.44;;;0.88;100.00
38912;BME280;28444;48.056;14.408;2023-02-14T10:17:54;99513.03;;;0.85;100.00
38912;BME280;28444;48.056;14.408;2023-02-14T10:20:26;99511.09;;;0.94;100.00
38912;BME280;28444;48.056;14.408;2023-02-14T10:23:21;99512.13;;;0.97;100.00
38912;BME280;28444;48.056;14.408;2023-02-14T10:26:11;99508.84;;;0.84;100.00
38912;BME280;28444;48.056;14.408;2023-02-14T10:28:44;99507.06;;;0.81;100.00
38912;BME280;28444;48.056;14.408;2023-02-14T10:31:48;99494.63;;;0.92;100.00
38912;BME280;28444;48.056;14.408;2023-02-14T10:34:41;99503.59;;;0.89;100.00
38912;BME280;28444;48.056;14.408;2023-02-14T10:37:43;99506.59;;;1.01;100.00
38912;BME280;28444;48.056;14.408;2023-02-14T10:46:34;99486.22;;;1.09;100.00
38912;BME280;28444;48.056;14.408;2023-02-14T10:50:09;99486.06;;;1.12;100.00
38912;BME280;28444;48.056;14.408;2023-02-14T10:52:45;99475.59;;;1.14;100.00
38912;BME280;28444;48.056;14.408;2023-02-14T10:55:21;99478.00;;;0.94;100.00
38912;BME280;28444;48.056;14.408;2023-02-14T10:58:00;99475.75;;;1.02;100.00
38912;BME280;28444;48.056;14.408;2023-02-14T11:00:34;99474.69;;;1.08;100.00
38912;BME280;28444;48.056;14.408;2023-02-14T11:03:06;99473.03;;;1.29;100.00
38912;BME280;28444;48.056;14.408;2023-02-14T11:05:37;99473.31;;;1.31;100.00
38912;BME280;28444;48.056;14.408;2023-02-14T11:08:20;99479.84;;;1.49;99.25
38912;BME280;28444;48.056;14.408;2023-02-14T11:10:48;99475.50;;;1.51;98.23
38912;BME280;28444;48.056;14.408;2023-02-14T11:13:35;99464.97;;;1.62;97.72
38912;BME280;28444;48.056;14.408;2023-02-14T11:16:08;99469.22;;;1.54;97.29
38912;BME280;28444;48.056;14.408;2023-02-14T11:18:36;99470.44;;;1.53;97.06
38912;BME280;28444;48.056;14.408;2023-02-14T11:21:15;99462.06;;;1.42;96.49
38912;BME280;28444;48.056;14.408;2023-02-14T11:23:49;99462.69;;;1.28;97.86
38912;BME280;28444;48.056;14.408;2023-02-14T11:26:26;99452.97;;;1.21;99.04
38912;BME280;28444;48.056;14.408;2023-02-14T11:29:00;99449.66;;;1.35;100.00
38912;BME280;28444;48.056;14.408;2023-02-14T11:31:32;99450.59;;;1.05;100.00
38912;BME280;28444;48.056;14.408;2023-02-14T11:34:02;99448.94;;;1.16;99.63
38912;BME280;28444;48.056;14.408;2023-02-14T11:36:30;99447.63;;;1.03;99.89
38912;BME280;28444;48.056;14.408;2023-02-14T11:39:09;99441.91;;;1.01;100.00
38912;BME280;28444;48.056;14.408;2023-02-14T11:41:50;99443.44;;;0.92;100.00
38912;BME280;28444;48.056;14.408;2023-02-14T11:44:20;99446.88;;;0.93;100.00
38912;BME280;28444;48.056;14.408;2023-02-14T11:46:53;99449.41;;;0.96;100.00
38912;BME280;28444;48.056;14.408;2023-02-14T11:49:33;99442.22;;;1.03;100.00
38912;BME280;28444;48.056;14.408;2023-02-14T11:52:08;99432.31;;;1.18;100.00
38912;BME280;28444;48.056;14.408;2023-02-14T11:54:37;99447.00;;;1.17;100.00
38912;BME280;28444;48.056;14.408;2023-02-14T11:57:29;99437.25;;;1.19;100.00
38912;BME280;28444;48.056;14.408;2023-02-14T12:00:00;99438.59;;;1.15;100.00
38912;BME280;28444;48.056;14.408;2023-02-14T12:02:37;99437.13;;;1.14;100.00
38912;BME280;28444;48.056;14.408;2023-02-14T12:05:22;99443.88;;;0.72;100.00
38912;BME280;28444;48.056;14.408;2023-02-14T12:07:54;99434.47;;;0.77;100.00
38912;BME280;28444;48.056;14.408;2023-02-14T12:10:28;99432.97;;;0.94;100.00
38912;BME280;28444;48.056;14.408;2023-02-14T12:13:27;99428.66;;;0.69;100.00
38912;BME280;28444;48.056;14.408;2023-02-14T12:15:56;99424.44;;;0.41;100.00
38912;BME280;28444;48.056;14.408;2023-02-14T12:18:50;99423.53;;;0.53;100.00
38912;BME280;28444;48.056;14.408;2023-02-14T12:21:35;99420.25;;;0.67;100.00
38912;BME280;28444;48.056;14.408;2023-02-14T12:27:23;99417.97;;;1.03;100.00
38912;BME280;28444;48.056;14.408;2023-02-14T12:30:05;99407.94;;;0.94;100.00
38912;BME280;28444;48.056;14.408;2023-02-14T12:32:42;99413.19;;;0.98;100.00
38912;BME280;28444;48.056;14.408;2023-02-14T12:35:31;99409.13;;;1.11;100.00
38912;BME280;28444;48.056;14.408;2023-02-14T12:41:14;99399.41;;;1.05;100.00
38912;BME280;28444;48.056;14.408;2023-02-14T12:43:55;99387.88;;;1.13;100.00
38912;BME280;28444;48.056;14.408;2023-02-14T12:47:00;99385.38;;;1.34;100.00
38912;BME280;28444;48.056;14.408;2023-02-14T12:49:56;99384.97;;;1.59;100.00
38912;BME280;28444;48.056;14.408;2023-02-14T12:58:30;99375.84;;;1.24;100.00
38912;BME280;28444;48.056;14.408;2023-02-14T13:06:35;99362.38;;;1.24;100.00
38912;BME280;28444;48.056;14.408;2023-02-14T13:16:11;99359.00;;;1.71;100.00
38912;BME280;28444;48.056;14.408;2023-02-14T13:22:03;99361.97;;;1.49;100.00
38912;BME280;28444;48.056;14.408;2023-02-14T13:24:50;99358.63;;;1.21;100.00
38912;BME280;28444;48.056;14.408;2023-02-14T13:27:25;99357.31;;;1.16;100.00
38912;BME280;28444;48.056;14.408;2023-02-14T13:33:05;99353.78;;;1.34;100.00
38912;BME280;28444;48.056;14.408;2023-02-14T13:35:32;99352.09;;;1.46;100.00
38912;BME280;28444;48.056;14.408;2023-02-14T13:38:04;99356.69;;;1.55;100.00
38912;BME280;28444;48.056;14.408;2023-02-14T13:40:33;99343.78;;;1.59;99.59
38912;BME280;28444;48.056;14.408;2023-02-14T13:43:01;99342.13;;;1.61;98.99
38912;BME280;28444;48.056;14.408;2023-02-14T13:50:51;99350.22;;;1.61;99.05
38912;BME280;28444;48.056;14.408;2023-02-14T13:53:42;99349.88;;;1.68;99.72
38912;BME280;28444;48.056;14.408;2023-02-14T13:59:13;99343.56;;;1.72;99.59
38912;BME280;28444;48.056;14.408;2023-02-14T14:01:49;99340.72;;;1.75;99.12
38912;BME280;28444;48.056;14.408;2023-02-14T14:04:45;99344.16;;;1.76;98.69
38912;BME280;28444;48.056;14.408;2023-02-14T14:07:16;99346.31;;;1.62;99.24
38912;BME280;28444;48.056;14.408;2023-02-14T14:09:54;99339.72;;;1.63;99.82
38912;BME280;28444;48.056;14.408;2023-02-14T14:12:47;99342.16;;;1.52;100.00
38912;BME280;28444;48.056;14.408;2023-02-14T14:15:18;99343.94;;;1.55;100.00